sensor_id;sensor_type;location;lat;lon;timestamp;P1;durP1;ratioP1;P2;durP2;ratioP2
14584;SDS011;7379;51.506;11.876;2023-02-22T00:00:07;7.07;;;5.38;;
14584;SDS011;7379;51.506;11.876;2023-02-22T00:02:43;7.93;;;5.38;;
14584;SDS011;7379;51.506;11.876;2023-02-22T00:05:11;6.15;;;5.07;;
14584;SDS011;7379;51.506;11.876;2023-02-22T00:07:40;6.40;;;5.22;;
14584;SDS011;7379;51.506;11.876;2023-02-22T00:10:08;8.70;;;5.75;;
14584;SDS011;7379;51.506;11.876;2023-02-22T00:12:38;6.57;;;5.40;;
14584;SDS011;7379;51.506;11.876;2023-02-22T00:15:06;6.55;;;5.30;;
14584;SDS011;7379;51.506;11.876;2023-02-22T00:17:34;6.38;;;5.63;;
14584;SDS011;7379;51.506;11.876;2023-02-22T00:20:02;6.43;;;5.40;;
14584;SDS011;7379;51.506;11.876;2023-02-22T00:22:31;6.60;;;5.65;;
14584;SDS011;7379;51.506;11.876;2023-02-22T00:24:58;6.10;;;5.05;;
14584;SDS011;7379;51.506;11.876;2023-02-22T00:27:25;7.43;;;5.53;;
14584;SDS011;7379;51.506;11.876;2023-02-22T00:29:54;7.22;;;5.82;;
14584;SDS011;7379;51.506;11.876;2023-02-22T00:32:21;7.75;;;6.05;;
14584;SDS011;7379;51.506;11.876;2023-02-22T00:34:50;7.63;;;5.60;;
14584;SDS011;7379;51.506;11.876;2023-02-22T00:37:17;6.38;;;5.20;;
14584;SDS011;7379;51.506;11.876;2023-02-22T00:39:45;6.55;;;5.50;;
14584;SDS011;7379;51.506;11.876;2023-02-22T00:42:12;6.95;;;5.70;;
14584;SDS011;7379;51.506;11.876;2023-02-22T00:44:39;6.82;;;5.68;;
14584;SDS011;7379;51.506;11.876;2023-02-22T00:47:07;7.05;;;5.38;;
14584;SDS011;7379;51.506;11.876;2023-02-22T00:49:34;6.72;;;5.60;;
14584;SDS011;7379;51.506;11.876;2023-02-22T00:52:02;7.75;;;6.13;;
14584;SDS011;7379;51.506;11.876;2023-02-22T00:54:29;8.25;;;6.55;;
14584;SDS011;7379;51.506;11.876;2023-02-22T00:56:56;7.70;;;6.10;;
14584;SDS011;7379;51.506;11.876;2023-02-22T00:59:23;6.50;;;5.70;;
14584;SDS011;7379;51.506;11.876;2023-02-22T01:01:51;7.13;;;5.88;;
14584;SDS011;7379;51.506;11.876;2023-02-22T01:04:19;7.85;;;6.40;;
14584;SDS011;7379;51.506;11.876;2023-02-22T01:06:46;7.13;;;5.97;;
14584;SDS011;7379;51.506;11.876;2023-02-22T01:09:13;8.07;;;6.05;;
14584;SDS011;7379;51.506;11.876;2023-02-22T01:11:39;7.68;;;5.78;;
14584;SDS011;7379;51.506;11.876;2023-02-22T01:14:06;7.95;;;6.25;;
14584;SDS011;7379;51.506;11.876;2023-02-22T01:16:33;7.80;;;6.00;;
14584;SDS011;7379;51.506;11.876;2023-02-22T01:19:00;8.55;;;6.25;;
14584;SDS011;7379;51.506;11.876;2023-02-22T01:21:29;8.77;;;6.30;;
14584;SDS011;7379;51.506;11.876;2023-02-22T01:23:56;8.35;;;6.35;;
14584;SDS011;7379;51.506;11.876;2023-02-22T01:26:23;7.43;;;6.22;;
14584;SDS011;7379;51.506;11.876;2023-02-22T01:28:49;8.60;;;6.40;;
14584;SDS011;7379;51.506;11.876;2023-02-22T01:31:16;6.90;;;6.17;;
14584;SDS011;7379;51.506;11.876;2023-02-22T01:33:43;8.93;;;6.50;;
14584;SDS011;7379;51.506;11.876;2023-02-22T01:36:10;8.80;;;6.78;;
14584;SDS011;7379;51.506;11.876;2023-02-22T01:38:38;8.35;;;6.60;;
14584;SDS011;7379;51.506;11.876;2023-02-22T01:41:05;8.77;;;6.90;;
14584;SDS011;7379;51.506;11.876;2023-02-22T01:43:32;8.25;;;6.70;;
14584;SDS011;7379;51.506;11.876;2023-02-22T01:46:00;7.95;;;6.10;;
14584;SDS011;7379;51.506;11.876;2023-02-22T01:48:29;7.72;;;6.22;;
14584;SDS011;7379;51.506;11.876;2023-02-22T01:51:01;7.93;;;6.32;;
14584;SDS011;7379;51.506;11.876;2023-02-22T01:53:35;7.50;;;6.35;;
14584;SDS011;7379;51.506;11.876;2023-02-22T01:56:06;8.13;;;6.55;;
14584;SDS011;7379;51.506;11.876;2023-02-22T01:58:34;8.35;;;6.18;;
14584;SDS011;7379;51.506;11.876;2023-02-22T02:01:05;7.78;;;6.00;;
14584;SDS011;7379;51.506;11.876;2023-02-22T02:03:33;8.43;;;6.50;;
14584;SDS011;7379;51.506;11.876;2023-02-22T02:06:02;7.32;;;6.15;;
14584;SDS011;7379;51.506;11.876;2023-02-22T02:08:37;8.90;;;7.00;;
14584;SDS011;7379;51.506;11.876;2023-02-22T02:11:14;7.65;;;6.50;;
14584;SDS011;7379;51.506;11.876;2023-02-22T02:13:42;7.53;;;6.45;;
14584;SDS011;7379;51.506;11.876;2023-02-22T02:16:09;8.30;;;6.30;;
14584;SDS011;7379;51.506;11.876;2023-02-22T02:18:36;8.30;;;6.78;;
14584;SDS011;7379;51.506;11.876;2023-02-22T02:21:14;8.07;;;6.60;;
14584;SDS011;7379;51.506;11.876;2023-02-22T02:27:15;8.35;;;6.65;;
14584;SDS011;7379;51.506;11.876;2023-02-22T02:32:54;8.15;;;6.82;;
14584;SDS011;7379;51.506;11.876;2023-02-22T02:35:27;8.88;;;6.55;;
14584;SDS011;7379;51.506;11.876;2023-02-22T02:38:01;7.95;;;6.55;;
14584;SDS011;7379;51.506;11.876;2023-02-22T02:40:33;8.05;;;6.70;;
14584;SDS011;7379;51.506;11.876;2023-02-22T02:43:06;8.05;;;6.50;;
14584;SDS011;7379;51.506;11.876;2023-02-22T02:45:42;8.68;;;6.95;;
14584;SDS011;7379;51.506;11.876;2023-02-22T02:48:16;8.68;;;6.82;;
14584;SDS011;7379;51.506;11.876;2023-02-22T02:50:49;8.77;;;6.82;;
14584;SDS011;7379;51.506;11.876;2023-02-22T02:53:17;8.57;;;6.73;;
14584;SDS011;7379;51.506;11.876;2023-02-22T02:55:46;7.77;;;6.43;;
14584;SDS011;7379;51.506;11.876;2023-02-22T02:58:15;8.47;;;6.63;;
14584;SDS011;7379;51.506;11.876;2023-02-22T03:00:45;8.80;;;6.50;;
14584;SDS011;7379;51.506;11.876;2023-02-22T03:03:22;10.07;;;7.13;;
14584;SDS011;7379;51.506;11.876;2023-02-22T03:06:07;8.73;;;6.75;;
14584;SDS011;7379;51.506;11.876;2023-02-22T03:08:42;7.68;;;6.22;;
14584;SDS011;7379;51.506;11.876;2023-02-22T03:11:15;8.80;;;6.93;;
14584;SDS011;7379;51.506;11.876;2023-02-22T03:13:48;8.85;;;6.88;;
14584;SDS011;7379;51.506;11.876;2023-02-22T03:16:20;8.45;;;6.68;;
14584;SDS011;7379;51.506;11.876;2023-02-22T03:18:57;8.18;;;6.32;;
14584;SDS011;7379;51.506;11.876;2023-02-22T03:21:30;8.40;;;6.82;;
14584;SDS011;7379;51.506;11.876;2023-02-22T03:24:05;8.32;;;6.70;;
14584;SDS011;7379;51.506;11.876;2023-02-22T03:26:37;8.02;;;6.55;;
14584;SDS011;7379;51.506;11.876;2023-02-22T03:29:09;8.93;;;6.90;;
14584;SDS011;7379;51.506;11.876;2023-02-22T03:31:40;7.97;;;6.15;;
14584;SDS011;7379;51.506;11.876;2023-02-22T03:34:14;8.35;;;6.30;;
14584;SDS011;7379;51.506;11.876;2023-02-22T03:36:44;8.15;;;6.32;;
14584;SDS011;7379;51.506;11.876;2023-02-22T03:39:15;8.23;;;6.43;;
14584;SDS011;7379;51.506;11.876;2023-02-22T03:41:45;8.83;;;6.97;;
14584;SDS011;7379;51.506;11.876;2023-02-22T03:44:17;10.00;;;6.80;;
14584;SDS011;7379;51.506;11.876;2023-02-22T03:46:50;9.27;;;6.50;;
14584;SDS011;7379;51.506;11.876;2023-02-22T03:49:25;7.60;;;6.38;;
14584;SDS011;7379;51.506;11.876;2023-02-22T03:51:57;8.95;;;6.68;;
14584;SDS011;7379;51.506;11.876;2023-02-22T03:54:25;8.85;;;6.78;;
14584;SDS011;7379;51.506;11.876;2023-02-22T03:56:53;8.03;;;6.77;;
14584;SDS011;7379;51.506;11.876;2023-02-22T03:59:23;8.67;;;6.93;;
14584;SDS011;7379;51.506;11.876;2023-02-22T04:01:52;8.60;;;7.00;;
14584;SDS011;7379;51.506;11.876;2023-02-22T04:04:19;7.93;;;6.73;;
14584;SDS011;7379;51.506;11.876;2023-02-22T04:06:49;9.10;;;6.63;;
14584;SDS011;7379;51.506;11.876;2023-02-22T04:09:16;9.20;;;6.90;;
14584;SDS011;7379;51.506;11.876;2023-02-22T04:11:43;11.97;;;6.93;;
14584;SDS011;7379;51.506;11.876;2023-02-22T04:14:11;8.35;;;6.75;;
14584;SDS011;7379;51.506;11.876;2023-02-22T04:16:38;7.80;;;6.72;;
14584;SDS011;7379;51.506;11.876;2023-02-22T04:19:05;9.93;;;6.90;;
14584;SDS011;7379;51.506;11.876;2023-02-22T04:21:31;8.48;;;6.68;;
14584;SDS011;7379;51.506;11.876;2023-02-22T04:23:59;8.45;;;6.88;;
14584;SDS011;7379;51.506;11.876;2023-02-22T04:26:26;7.97;;;6.78;;
14584;SDS011;7379;51.506;11.876;2023-02-22T04:28:53;8.27;;;6.38;;
14584;SDS011;7379;51.506;11.876;2023-02-22T04:31:20;8.27;;;6.82;;
14584;SDS011;7379;51.506;11.876;2023-02-22T04:33:47;8.93;;;6.97;;
14584;SDS011;7379;51.506;11.876;2023-02-22T04:36:13;7.90;;;6.50;;
14584;SDS011;7379;51.506;11.876;2023-02-22T04:38:40;9.10;;;6.57;;
14584;SDS011;7379;51.506;11.876;2023-02-22T04:41:08;8.60;;;6.40;;
14584;SDS011;7379;51.506;11.876;2023-02-22T04:43:36;7.70;;;6.40;;
14584;SDS011;7379;51.506;11.876;2023-02-22T04:46:03;7.45;;;6.40;;
14584;SDS011;7379;51.506;11.876;2023-02-22T04:48:30;8.93;;;6.60;;
14584;SDS011;7379;51.506;11.876;2023-02-22T04:50:57;8.52;;;6.43;;
14584;SDS011;7379;51.506;11.876;2023-02-22T04:53:23;7.65;;;6.45;;
14584;SDS011;7379;51.506;11.876;2023-02-22T04:55:50;8.00;;;6.35;;
14584;SDS011;7379;51.506;11.876;2023-02-22T04:58:18;7.90;;;6.47;;
14584;SDS011;7379;51.506;11.876;2023-02-22T05:00:45;8.37;;;6.43;;
14584;SDS011;7379;51.506;11.876;2023-02-22T05:03:12;9.30;;;6.57;;
14584;SDS011;7379;51.506;11.876;2023-02-22T05:05:39;8.00;;;6.30;;
14584;SDS011;7379;51.506;11.876;2023-02-22T05:08:06;9.77;;;6.60;;
14584;SDS011;7379;51.506;11.876;2023-02-22T05:10:33;8.53;;;6.60;;
14584;SDS011;7379;51.506;11.876;2023-02-22T05:13:00;8.30;;;6.80;;
14584;SDS011;7379;51.506;11.876;2023-02-22T05:15:28;8.00;;;6.80;;
14584;SDS011;7379;51.506;11.876;2023-02-22T05:17:55;9.18;;;6.80;;
14584;SDS011;7379;51.506;11.876;2023-02-22T05:20:22;8.73;;;6.63;;
14584;SDS011;7379;51.506;11.876;2023-02-22T05:22:51;8.73;;;6.43;;
14584;SDS011;7379;51.506;11.876;2023-02-22T05:25:18;7.13;;;6.33;;
14584;SDS011;7379;51.506;11.876;2023-02-22T05:27:48;7.90;;;6.05;;
14584;SDS011;7379;51.506;11.876;2023-02-22T05:30:16;7.18;;;6.22;;
14584;SDS011;7379;51.506;11.876;2023-02-22T05:32:45;8.90;;;7.03;;
14584;SDS011;7379;51.506;11.876;2023-02-22T05:35:12;9.35;;;6.55;;
14584;SDS011;7379;51.506;11.876;2023-02-22T05:37:39;7.80;;;6.27;;
14584;SDS011;7379;51.506;11.876;2023-02-22T05:40:06;7.63;;;6.50;;
14584;SDS011;7379;51.506;11.876;2023-02-22T05:42:34;8.53;;;6.50;;
14584;SDS011;7379;51.506;11.876;2023-02-22T05:45:00;9.20;;;7.33;;
14584;SDS011;7379;51.506;11.876;2023-02-22T05:47:27;9.55;;;7.35;;
14584;SDS011;7379;51.506;11.876;2023-02-22T05:49:56;8.70;;;7.07;;
14584;SDS011;7379;51.506;11.876;2023-02-22T05:52:23;9.47;;;6.80;;
14584;SDS011;7379;51.506;11.876;2023-02-22T05:54:50;8.90;;;6.85;;
14584;SDS011;7379;51.506;11.876;2023-02-22T05:57:16;8.98;;;6.47;;
14584;SDS011;7379;51.506;11.876;2023-02-22T05:59:43;8.20;;;6.53;;
14584;SDS011;7379;51.506;11.876;2023-02-22T06:02:10;8.30;;;6.85;;
14584;SDS011;7379;51.506;11.876;2023-02-22T06:04:37;10.00;;;6.97;;
14584;SDS011;7379;51.506;11.876;2023-02-22T06:07:05;9.93;;;7.63;;
14584;SDS011;7379;51.506;11.876;2023-02-22T06:09:32;9.60;;;7.30;;
14584;SDS011;7379;51.506;11.876;2023-02-22T06:11:59;9.43;;;7.47;;
14584;SDS011;7379;51.506;11.876;2023-02-22T06:14:25;8.63;;;7.38;;
14584;SDS011;7379;51.506;11.876;2023-02-22T06:16:52;12.83;;;10.80;;
14584;SDS011;7379;51.506;11.876;2023-02-22T06:19:20;11.30;;;9.70;;
14584;SDS011;7379;51.506;11.876;2023-02-22T06:21:49;12.55;;;10.73;;
14584;SDS011;7379;51.506;11.876;2023-02-22T06:24:18;12.60;;;10.45;;
14584;SDS011;7379;51.506;11.876;2023-02-22T06:26:45;11.97;;;10.00;;
14584;SDS011;7379;51.506;11.876;2023-02-22T06:29:19;12.38;;;10.15;;
14584;SDS011;7379;51.506;11.876;2023-02-22T06:31:46;12.10;;;9.80;;
14584;SDS011;7379;51.506;11.876;2023-02-22T06:34:12;11.60;;;9.77;;
14584;SDS011;7379;51.506;11.876;2023-02-22T06:36:39;14.00;;;10.17;;
14584;SDS011;7379;51.506;11.876;2023-02-22T06:39:06;13.00;;;9.45;;
14584;SDS011;7379;51.506;11.876;2023-02-22T06:41:37;11.98;;;9.35;;
14584;SDS011;7379;51.506;11.876;2023-02-22T06:44:04;12.97;;;10.17;;
14584;SDS011;7379;51.506;11.876;2023-02-22T06:46:30;13.27;;;9.27;;
14584;SDS011;7379;51.506;11.876;2023-02-22T06:48:57;11.40;;;9.63;;
14584;SDS011;7379;51.506;11.876;2023-02-22T06:51:24;13.40;;;10.37;;
14584;SDS011;7379;51.506;11.876;2023-02-22T06:53:51;14.97;;;10.40;;
14584;SDS011;7379;51.506;11.876;2023-02-22T06:56:19;13.60;;;10.10;;
14584;SDS011;7379;51.506;11.876;2023-02-22T06:58:47;14.57;;;10.27;;
14584;SDS011;7379;51.506;11.876;2023-02-22T07:01:14;13.23;;;10.33;;
14584;SDS011;7379;51.506;11.876;2023-02-22T07:03:41;13.10;;;10.17;;
14584;SDS011;7379;51.506;11.876;2023-02-22T07:06:08;13.10;;;10.20;;
14584;SDS011;7379;51.506;11.876;2023-02-22T07:08:35;13.90;;;10.53;;
14584;SDS011;7379;51.506;11.876;2023-02-22T07:11:02;13.40;;;9.80;;
14584;SDS011;7379;51.506;11.876;2023-02-22T07:13:29;13.37;;;9.83;;
14584;SDS011;7379;51.506;11.876;2023-02-22T07:15:57;14.07;;;10.03;;
14584;SDS011;7379;51.506;11.876;2023-02-22T07:18:24;13.43;;;10.07;;
14584;SDS011;7379;51.506;11.876;2023-02-22T07:20:51;13.37;;;9.97;;
14584;SDS011;7379;51.506;11.876;2023-02-22T07:23:18;13.27;;;9.50;;
14584;SDS011;7379;51.506;11.876;2023-02-22T07:25:45;13.13;;;9.57;;
14584;SDS011;7379;51.506;11.876;2023-02-22T07:28:12;13.17;;;9.73;;
14584;SDS011;7379;51.506;11.876;2023-02-22T07:30:39;14.50;;;10.03;;
14584;SDS011;7379;51.506;11.876;2023-02-22T07:33:09;13.63;;;9.93;;
14584;SDS011;7379;51.506;11.876;2023-02-22T07:35:37;13.43;;;9.53;;
14584;SDS011;7379;51.506;11.876;2023-02-22T07:38:08;13.20;;;9.90;;
14584;SDS011;7379;51.506;11.876;2023-02-22T07:40:35;13.50;;;9.60;;
14584;SDS011;7379;51.506;11.876;2023-02-22T07:43:03;14.10;;;9.37;;
14584;SDS011;7379;51.506;11.876;2023-02-22T07:45:35;15.07;;;10.10;;
14584;SDS011;7379;51.506;11.876;2023-02-22T07:48:03;14.87;;;9.97;;
14584;SDS011;7379;51.506;11.876;2023-02-22T07:50:32;12.85;;;9.32;;
14584;SDS011;7379;51.506;11.876;2023-02-22T07:53:01;13.65;;;9.52;;
14584;SDS011;7379;51.506;11.876;2023-02-22T07:55:29;14.23;;;9.27;;
14584;SDS011;7379;51.506;11.876;2023-02-22T07:57:58;12.77;;;9.37;;
14584;SDS011;7379;51.506;11.876;2023-02-22T08:00:27;13.70;;;9.40;;
14584;SDS011;7379;51.506;11.876;2023-02-22T08:02:55;12.97;;;9.23;;
14584;SDS011;7379;51.506;11.876;2023-02-22T08:05:23;16.10;;;9.83;;
14584;SDS011;7379;51.506;11.876;2023-02-22T08:07:52;12.57;;;9.00;;
14584;SDS011;7379;51.506;11.876;2023-02-22T08:10:20;13.03;;;9.30;;
14584;SDS011;7379;51.506;11.876;2023-02-22T08:12:49;13.80;;;9.27;;
14584;SDS011;7379;51.506;11.876;2023-02-22T08:15:18;15.03;;;9.93;;
14584;SDS011;7379;51.506;11.876;2023-02-22T08:17:47;14.47;;;9.20;;
14584;SDS011;7379;51.506;11.876;2023-02-22T08:20:14;14.40;;;9.40;;
14584;SDS011;7379;51.506;11.876;2023-02-22T08:22:42;13.33;;;8.57;;
14584;SDS011;7379;51.506;11.876;2023-02-22T08:25:10;13.63;;;9.37;;
14584;SDS011;7379;51.506;11.876;2023-02-22T08:27:39;13.60;;;9.30;;
14584;SDS011;7379;51.506;11.876;2023-02-22T08:30:07;13.87;;;9.00;;
14584;SDS011;7379;51.506;11.876;2023-02-22T08:32:34;13.27;;;8.90;;
14584;SDS011;7379;51.506;11.876;2023-02-22T08:35:01;14.20;;;9.37;;
14584;SDS011;7379;51.506;11.876;2023-02-22T08:37:28;14.10;;;9.33;;
14584;SDS011;7379;51.506;11.876;2023-02-22T08:39:55;13.43;;;9.60;;
14584;SDS011;7379;51.506;11.876;2023-02-22T08:42:23;13.20;;;9.33;;
14584;SDS011;7379;51.506;11.876;2023-02-22T08:44:50;14.67;;;8.70;;
14584;SDS011;7379;51.506;11.876;2023-02-22T08:47:17;13.30;;;9.43;;
14584;SDS011;7379;51.506;11.876;2023-02-22T08:49:43;13.47;;;9.37;;
14584;SDS011;7379;51.506;11.876;2023-02-22T08:52:10;15.13;;;9.57;;
14584;SDS011;7379;51.506;11.876;2023-02-22T08:54:37;13.10;;;9.60;;
14584;SDS011;7379;51.506;11.876;2023-02-22T08:57:04;14.20;;;8.80;;
14584;SDS011;7379;51.506;11.876;2023-02-22T08:59:32;15.30;;;10.07;;
14584;SDS011;7379;51.506;11.876;2023-02-22T09:01:59;15.30;;;10.10;;
14584;SDS011;7379;51.506;11.876;2023-02-22T09:04:26;13.83;;;10.23;;
14584;SDS011;7379;51.506;11.876;2023-02-22T09:06:53;16.60;;;10.53;;
14584;SDS011;7379;51.506;11.876;2023-02-22T09:09:20;16.17;;;10.50;;
14584;SDS011;7379;51.506;11.876;2023-02-22T09:11:47;17.43;;;10.97;;
14584;SDS011;7379;51.506;11.876;2023-02-22T09:14:14;16.20;;;10.97;;
14584;SDS011;7379;51.506;11.876;2023-02-22T09:16:43;17.37;;;11.60;;
14584;SDS011;7379;51.506;11.876;2023-02-22T09:19:10;16.57;;;10.50;;
14584;SDS011;7379;51.506;11.876;2023-02-22T09:21:37;16.60;;;10.67;;
14584;SDS011;7379;51.506;11.876;2023-02-22T09:24:05;15.70;;;10.70;;
14584;SDS011;7379;51.506;11.876;2023-02-22T09:26:33;16.20;;;11.13;;
14584;SDS011;7379;51.506;11.876;2023-02-22T09:29:03;16.43;;;11.20;;
14584;SDS011;7379;51.506;11.876;2023-02-22T09:31:33;17.07;;;10.70;;
14584;SDS011;7379;51.506;11.876;2023-02-22T09:34:02;17.90;;;11.63;;
14584;SDS011;7379;51.506;11.876;2023-02-22T09:36:30;16.17;;;10.13;;
14584;SDS011;7379;51.506;11.876;2023-02-22T09:38:57;16.20;;;11.03;;
14584;SDS011;7379;51.506;11.876;2023-02-22T09:41:24;17.93;;;10.97;;
14584;SDS011;7379;51.506;11.876;2023-02-22T09:44:00;15.53;;;11.43;;
14584;SDS011;7379;51.506;11.876;2023-02-22T09:46:39;18.37;;;10.90;;
14584;SDS011;7379;51.506;11.876;2023-02-22T09:49:15;15.47;;;11.20;;
14584;SDS011;7379;51.506;11.876;2023-02-22T09:51:47;17.42;;;10.82;;
14584;SDS011;7379;51.506;11.876;2023-02-22T09:54:20;15.23;;;11.03;;
14584;SDS011;7379;51.506;11.876;2023-02-22T09:56:52;18.70;;;11.88;;
14584;SDS011;7379;51.506;11.876;2023-02-22T09:59:24;16.73;;;10.83;;
14584;SDS011;7379;51.506;11.876;2023-02-22T10:01:57;17.67;;;10.95;;
14584;SDS011;7379;51.506;11.876;2023-02-22T10:04:35;16.48;;;11.32;;
14584;SDS011;7379;51.506;11.876;2023-02-22T10:07:14;15.57;;;10.60;;
14584;SDS011;7379;51.506;11.876;2023-02-22T10:09:43;17.63;;;11.63;;
14584;SDS011;7379;51.506;11.876;2023-02-22T10:12:14;17.42;;;11.07;;
14584;SDS011;7379;51.506;11.876;2023-02-22T10:14:51;16.70;;;11.17;;
14584;SDS011;7379;51.506;11.876;2023-02-22T10:17:38;18.00;;;11.07;;
14584;SDS011;7379;51.506;11.876;2023-02-22T10:20:19;16.57;;;10.33;;
14584;SDS011;7379;51.506;11.876;2023-02-22T10:22:59;16.37;;;10.50;;
14584;SDS011;7379;51.506;11.876;2023-02-22T10:25:36;15.17;;;10.10;;
14584;SDS011;7379;51.506;11.876;2023-02-22T10:28:05;18.67;;;10.57;;
14584;SDS011;7379;51.506;11.876;2023-02-22T10:30:38;16.45;;;10.90;;
14584;SDS011;7379;51.506;11.876;2023-02-22T10:33:10;16.02;;;10.55;;
14584;SDS011;7379;51.506;11.876;2023-02-22T10:35:42;15.35;;;10.25;;
14584;SDS011;7379;51.506;11.876;2023-02-22T10:38:11;14.88;;;10.43;;
14584;SDS011;7379;51.506;11.876;2023-02-22T10:40:42;16.73;;;10.50;;
14584;SDS011;7379;51.506;11.876;2023-02-22T10:43:13;16.23;;;10.20;;
14584;SDS011;7379;51.506;11.876;2023-02-22T10:45:40;12.98;;;9.60;;
14584;SDS011;7379;51.506;11.876;2023-02-22T10:48:08;15.52;;;10.15;;
14584;SDS011;7379;51.506;11.876;2023-02-22T10:50:38;16.17;;;9.82;;
14584;SDS011;7379;51.506;11.876;2023-02-22T10:53:08;13.10;;;9.43;;
14584;SDS011;7379;51.506;11.876;2023-02-22T10:55:35;15.20;;;9.32;;
14584;SDS011;7379;51.506;11.876;2023-02-22T10:58:45;14.30;;;9.77;;
14584;SDS011;7379;51.506;11.876;2023-02-22T11:01:19;13.57;;;9.13;;
14584;SDS011;7379;51.506;11.876;2023-02-22T11:03:55;16.35;;;10.48;;
14584;SDS011;7379;51.506;11.876;2023-02-22T11:06:27;13.20;;;9.23;;
14584;SDS011;7379;51.506;11.876;2023-02-22T11:09:04;13.73;;;9.55;;
14584;SDS011;7379;51.506;11.876;2023-02-22T11:11:34;12.50;;;8.75;;
14584;SDS011;7379;51.506;11.876;2023-02-22T11:14:02;12.98;;;9.52;;
14584;SDS011;7379;51.506;11.876;2023-02-22T11:16:31;13.70;;;9.30;;
14584;SDS011;7379;51.506;11.876;2023-02-22T11:19:02;14.67;;;9.03;;
14584;SDS011;7379;51.506;11.876;2023-02-22T11:21:45;13.88;;;9.10;;
14584;SDS011;7379;51.506;11.876;2023-02-22T11:24:14;14.90;;;9.32;;
14584;SDS011;7379;51.506;11.876;2023-02-22T11:26:42;13.95;;;9.55;;
14584;SDS011;7379;51.506;11.876;2023-02-22T11:29:14;12.48;;;8.82;;
14584;SDS011;7379;51.506;11.876;2023-02-22T11:31:45;13.63;;;9.02;;
14584;SDS011;7379;51.506;11.876;2023-02-22T11:34:24;13.57;;;9.00;;
14584;SDS011;7379;51.506;11.876;2023-02-22T11:36:59;14.15;;;9.60;;
14584;SDS011;7379;51.506;11.876;2023-02-22T11:40:02;14.05;;;9.52;;
14584;SDS011;7379;51.506;11.876;2023-02-22T11:42:38;13.80;;;8.80;;
14584;SDS011;7379;51.506;11.876;2023-02-22T11:45:09;13.35;;;9.35;;
14584;SDS011;7379;51.506;11.876;2023-02-22T11:47:51;15.27;;;9.70;;
14584;SDS011;7379;51.506;11.876;2023-02-22T11:50:21;15.20;;;9.82;;
14584;SDS011;7379;51.506;11.876;2023-02-22T11:52:54;15.10;;;9.43;;
14584;SDS011;7379;51.506;11.876;2023-02-22T11:55:38;12.70;;;8.93;;
14584;SDS011;7379;51.506;11.876;2023-02-22T11:58:17;12.65;;;8.90;;
14584;SDS011;7379;51.506;11.876;2023-02-22T12:00:56;12.85;;;8.77;;
14584;SDS011;7379;51.506;11.876;2023-02-22T12:03:44;13.25;;;9.10;;
14584;SDS011;7379;51.506;11.876;2023-02-22T12:06:25;13.57;;;9.10;;
14584;SDS011;7379;51.506;11.876;2023-02-22T12:09:06;13.73;;;8.32;;
14584;SDS011;7379;51.506;11.876;2023-02-22T12:11:41;13.48;;;8.30;;
14584;SDS011;7379;51.506;11.876;2023-02-22T12:14:20;11.43;;;8.48;;
14584;SDS011;7379;51.506;11.876;2023-02-22T12:19:59;13.00;;;8.18;;
14584;SDS011;7379;51.506;11.876;2023-02-22T12:22:32;12.23;;;8.40;;
14584;SDS011;7379;51.506;11.876;2023-02-22T12:25:01;12.75;;;8.35;;
14584;SDS011;7379;51.506;11.876;2023-02-22T12:27:34;11.13;;;7.60;;
14584;SDS011;7379;51.506;11.876;2023-02-22T12:30:06;11.43;;;7.80;;
14584;SDS011;7379;51.506;11.876;2023-02-22T12:32:38;14.02;;;7.95;;
14584;SDS011;7379;51.506;11.876;2023-02-22T12:35:08;11.75;;;8.10;;
14584;SDS011;7379;51.506;11.876;2023-02-22T12:37:46;13.05;;;7.63;;
14584;SDS011;7379;51.506;11.876;2023-02-22T12:40:19;11.25;;;7.50;;
14584;SDS011;7379;51.506;11.876;2023-02-22T12:42:55;9.38;;;6.97;;
14584;SDS011;7379;51.506;11.876;2023-02-22T12:45:26;11.18;;;7.30;;
14584;SDS011;7379;51.506;11.876;2023-02-22T12:47:59;12.35;;;7.07;;
14584;SDS011;7379;51.506;11.876;2023-02-22T12:50:34;10.10;;;7.03;;
14584;SDS011;7379;51.506;11.876;2023-02-22T12:53:03;9.52;;;7.00;;
14584;SDS011;7379;51.506;11.876;2023-02-22T12:55:39;9.20;;;6.75;;
14584;SDS011;7379;51.506;11.876;2023-02-22T12:58:16;12.63;;;7.07;;
14584;SDS011;7379;51.506;11.876;2023-02-22T13:00:50;9.63;;;6.88;;
14584;SDS011;7379;51.506;11.876;2023-02-22T13:03:26;11.77;;;7.20;;
14584;SDS011;7379;51.506;11.876;2023-02-22T13:06:02;9.88;;;6.75;;
14584;SDS011;7379;51.506;11.876;2023-02-22T13:08:44;9.85;;;7.05;;
14584;SDS011;7379;51.506;11.876;2023-02-22T13:11:20;9.77;;;6.60;;
14584;SDS011;7379;51.506;11.876;2023-02-22T13:13:58;10.80;;;6.68;;
14584;SDS011;7379;51.506;11.876;2023-02-22T13:16:37;10.00;;;6.97;;
14584;SDS011;7379;51.506;11.876;2023-02-22T13:19:14;9.07;;;6.55;;
14584;SDS011;7379;51.506;11.876;2023-02-22T13:21:50;10.43;;;7.10;;
14584;SDS011;7379;51.506;11.876;2023-02-22T13:24:22;9.68;;;6.68;;
14584;SDS011;7379;51.506;11.876;2023-02-22T13:26:55;10.60;;;7.40;;
14584;SDS011;7379;51.506;11.876;2023-02-22T13:29:27;10.20;;;6.85;;
14584;SDS011;7379;51.506;11.876;2023-02-22T13:32:05;9.45;;;6.78;;
14584;SDS011;7379;51.506;11.876;2023-02-22T13:37:53;9.05;;;6.93;;
14584;SDS011;7379;51.506;11.876;2023-02-22T13:40:39;10.93;;;7.40;;
14584;SDS011;7379;51.506;11.876;2023-02-22T13:43:18;9.40;;;7.03;;
14584;SDS011;7379;51.506;11.876;2023-02-22T13:46:32;9.25;;;7.32;;
14584;SDS011;7379;51.506;11.876;2023-02-22T13:49:20;11.65;;;7.00;;
14584;SDS011;7379;51.506;11.876;2023-02-22T13:52:01;11.45;;;7.25;;
14584;SDS011;7379;51.506;11.876;2023-02-22T13:54:34;10.07;;;7.03;;
14584;SDS011;7379;51.506;11.876;2023-02-22T13:57:16;11.13;;;8.05;;
14584;SDS011;7379;51.506;11.876;2023-02-22T13:59:44;11.23;;;7.25;;
14584;SDS011;7379;51.506;11.876;2023-02-22T14:08:01;8.98;;;6.60;;
14584;SDS011;7379;51.506;11.876;2023-02-22T14:10:44;9.68;;;7.13;;
14584;SDS011;7379;51.506;11.876;2023-02-22T14:13:13;8.50;;;6.70;;
14584;SDS011;7379;51.506;11.876;2023-02-22T14:18:49;9.65;;;6.95;;
14584;SDS011;7379;51.506;11.876;2023-02-22T14:21:27;10.50;;;7.10;;
14584;SDS011;7379;51.506;11.876;2023-02-22T14:23:54;10.32;;;7.00;;
14584;SDS011;7379;51.506;11.876;2023-02-22T14:26:31;9.20;;;6.93;;
14584;SDS011;7379;51.506;11.876;2023-02-22T14:29:00;11.10;;;7.90;;
14584;SDS011;7379;51.506;11.876;2023-02-22T14:31:52;12.38;;;7.50;;
14584;SDS011;7379;51.506;11.876;2023-02-22T14:34:38;10.77;;;7.72;;
14584;SDS011;7379;51.506;11.876;2023-02-22T14:37:10;9.90;;;7.20;;
14584;SDS011;7379;51.506;11.876;2023-02-22T14:39:42;10.93;;;7.32;;
14584;SDS011;7379;51.506;11.876;2023-02-22T14:42:12;9.32;;;6.95;;
14584;SDS011;7379;51.506;11.876;2023-02-22T14:44:43;8.90;;;7.18;;
14584;SDS011;7379;51.506;11.876;2023-02-22T14:47:18;10.60;;;7.43;;
14584;SDS011;7379;51.506;11.876;2023-02-22T14:49:53;10.65;;;7.88;;
14584;SDS011;7379;51.506;11.876;2023-02-22T14:52:25;8.85;;;6.75;;
14584;SDS011;7379;51.506;11.876;2023-02-22T14:54:55;9.48;;;7.40;;
14584;SDS011;7379;51.506;11.876;2023-02-22T14:57:33;11.50;;;7.53;;
14584;SDS011;7379;51.506;11.876;2023-02-22T15:00:12;12.27;;;8.30;;
14584;SDS011;7379;51.506;11.876;2023-02-22T15:02:44;10.65;;;8.30;;
14584;SDS011;7379;51.506;11.876;2023-02-22T15:05:13;12.77;;;8.10;;
14584;SDS011;7379;51.506;11.876;2023-02-22T15:07:50;9.98;;;7.57;;
14584;SDS011;7379;51.506;11.876;2023-02-22T15:10:21;12.43;;;8.25;;
14584;SDS011;7379;51.506;11.876;2023-02-22T15:12:51;13.18;;;8.57;;
14584;SDS011;7379;51.506;11.876;2023-02-22T15:15:33;11.15;;;8.13;;
14584;SDS011;7379;51.506;11.876;2023-02-22T15:18:00;10.57;;;8.07;;
14584;SDS011;7379;51.506;11.876;2023-02-22T15:20:31;11.32;;;7.85;;